Terminal Aerodrome Forecast
Issued by NWS

Home | Current Version | Previous Version | Text Only | Print | Product List | Glossary On
Versions: 1 2 3 4 5 6 7 8 9 10 11 12 13 14 15 16 17 18 19 20 21 22 23
000
FTUS43 KDLH 292300
TAFHIB
TAF
KHIB 292330Z 3000/3024 31015G25KT P6SM BKN045
     FM300130 31008KT P6SM SCT045
      TEMPO 3002/3003 BKN045
     FM300900 30003KT 6SM BR FEW040
      TEMPO 3009/3013 3SM BR
     FM301500 30004KT P6SM SCT100
     FM302000 19007KT P6SM VCSH SCT020 OVC050
      TEMPO 3020/3024 5SM -SHRA BKN025 OVC040=

USA.gov is the U.S. government's official web portal to all federal, state and local government web resources and services.